sensor_id;sensor_type;location;lat;lon;timestamp;temperature;humidity
32640;DHT22;19049;52.524;11.468;2023-03-24T00:00:59;11.80;99.90
32640;DHT22;19049;52.524;11.468;2023-03-24T00:03:29;11.90;99.90
32640;DHT22;19049;52.524;11.468;2023-03-24T00:06:00;12.20;99.90
32640;DHT22;19049;52.524;11.468;2023-03-24T00:08:28;11.70;99.90
32640;DHT22;19049;52.524;11.468;2023-03-24T00:10:58;12.30;99.90
32640;DHT22;19049;52.524;11.468;2023-03-24T00:13:28;12.10;99.90
32640;DHT22;19049;52.524;11.468;2023-03-24T00:18:20;12.50;99.90
32640;DHT22;19049;52.524;11.468;2023-03-24T00:20:47;12.20;99.90
32640;DHT22;19049;52.524;11.468;2023-03-24T00:23:13;12.10;99.90
32640;DHT22;19049;52.524;11.468;2023-03-24T00:25:39;11.80;99.90
32640;DHT22;19049;52.524;11.468;2023-03-24T00:30:32;12.40;99.90
32640;DHT22;19049;52.524;11.468;2023-03-24T00:32:59;12.20;99.90
32640;DHT22;19049;52.524;11.468;2023-03-24T00:35:26;11.30;99.90
32640;DHT22;19049;52.524;11.468;2023-03-24T00:40:19;11.10;99.90
32640;DHT22;19049;52.524;11.468;2023-03-24T00:42:46;12.70;99.90
32640;DHT22;19049;52.524;11.468;2023-03-24T00:45:23;11.70;99.90
32640;DHT22;19049;52.524;11.468;2023-03-24T00:47:49;13.30;99.90
32640;DHT22;19049;52.524;11.468;2023-03-24T00:50:19;12.40;99.90
32640;DHT22;19049;52.524;11.468;2023-03-24T00:52:45;12.00;99.90
32640;DHT22;19049;52.524;11.468;2023-03-24T00:55:12;11.90;99.90
32640;DHT22;19049;52.524;11.468;2023-03-24T00:57:40;12.20;99.90
32640;DHT22;19049;52.524;11.468;2023-03-24T01:00:14;12.10;99.90
32640;DHT22;19049;52.524;11.468;2023-03-24T01:02:49;11.60;99.90
32640;DHT22;19049;52.524;11.468;2023-03-24T01:05:18;12.50;99.90
32640;DHT22;19049;52.524;11.468;2023-03-24T01:07:45;12.40;99.90
32640;DHT22;19049;52.524;11.468;2023-03-24T01:10:17;11.90;99.90
32640;DHT22;19049;52.524;11.468;2023-03-24T01:12:44;12.00;99.90
32640;DHT22;19049;52.524;11.468;2023-03-24T01:15:18;12.50;99.90
32640;DHT22;19049;52.524;11.468;2023-03-24T01:17:44;12.20;99.90
32640;DHT22;19049;52.524;11.468;2023-03-24T01:20:13;12.40;99.90
32640;DHT22;19049;52.524;11.468;2023-03-24T01:22:40;13.10;99.90
32640;DHT22;19049;52.524;11.468;2023-03-24T01:25:27;12.60;99.90
32640;DHT22;19049;52.524;11.468;2023-03-24T01:27:53;12.50;99.90
32640;DHT22;19049;52.524;11.468;2023-03-24T01:30:22;12.80;99.90
32640;DHT22;19049;52.524;11.468;2023-03-24T01:32:53;13.10;99.90
32640;DHT22;19049;52.524;11.468;2023-03-24T01:35:23;12.80;99.90
32640;DHT22;19049;52.524;11.468;2023-03-24T01:40:21;12.40;99.90
32640;DHT22;19049;52.524;11.468;2023-03-24T01:48:14;12.60;99.90
32640;DHT22;19049;52.524;11.468;2023-03-24T01:50:44;12.70;99.90
32640;DHT22;19049;52.524;11.468;2023-03-24T01:53:20;14.90;99.90
32640;DHT22;19049;52.524;11.468;2023-03-24T01:55:47;12.10;99.90
32640;DHT22;19049;52.524;11.468;2023-03-24T02:00:39;12.10;99.90
32640;DHT22;19049;52.524;11.468;2023-03-24T02:03:16;12.20;99.90
32640;DHT22;19049;52.524;11.468;2023-03-24T02:05:46;12.50;99.90
32640;DHT22;19049;52.524;11.468;2023-03-24T02:08:29;12.30;99.90
32640;DHT22;19049;52.524;11.468;2023-03-24T02:13:21;12.50;99.90
32640;DHT22;19049;52.524;11.468;2023-03-24T02:16:00;11.60;99.90
32640;DHT22;19049;52.524;11.468;2023-03-24T02:26:54;12.50;99.90
32640;DHT22;19049;52.524;11.468;2023-03-24T02:32:22;12.00;99.90
32640;DHT22;19049;52.524;11.468;2023-03-24T02:46:04;12.10;99.90
32640;DHT22;19049;52.524;11.468;2023-03-24T02:48:36;12.20;99.90
32640;DHT22;19049;52.524;11.468;2023-03-24T02:59:13;12.20;99.90
32640;DHT22;19049;52.524;11.468;2023-03-24T03:01:47;12.10;99.90
32640;DHT22;19049;52.524;11.468;2023-03-24T03:04:29;11.70;99.90
32640;DHT22;19049;52.524;11.468;2023-03-24T03:07:00;12.40;99.90
32640;DHT22;19049;52.524;11.468;2023-03-24T03:09:28;12.20;99.90
32640;DHT22;19049;52.524;11.468;2023-03-24T03:11:56;12.10;99.90
32640;DHT22;19049;52.524;11.468;2023-03-24T03:14:55;12.10;99.90
32640;DHT22;19049;52.524;11.468;2023-03-24T03:17:26;12.20;99.90
32640;DHT22;19049;52.524;11.468;2023-03-24T03:20:07;11.60;99.90
32640;DHT22;19049;52.524;11.468;2023-03-24T03:22:41;12.40;99.90
32640;DHT22;19049;52.524;11.468;2023-03-24T03:25:08;12.10;99.90
32640;DHT22;19049;52.524;11.468;2023-03-24T03:27:38;12.10;99.90
32640;DHT22;19049;52.524;11.468;2023-03-24T03:30:10;12.40;99.90
32640;DHT22;19049;52.524;11.468;2023-03-24T03:32:42;13.10;99.90
32640;DHT22;19049;52.524;11.468;2023-03-24T03:37:56;12.50;99.90
32640;DHT22;19049;52.524;11.468;2023-03-24T03:40:34;12.20;99.90
32640;DHT22;19049;52.524;11.468;2023-03-24T03:43:04;13.00;99.90
32640;DHT22;19049;52.524;11.468;2023-03-24T03:45:32;12.60;99.90
32640;DHT22;19049;52.524;11.468;2023-03-24T03:48:01;11.80;99.90
32640;DHT22;19049;52.524;11.468;2023-03-24T03:52:53;11.80;99.90
32640;DHT22;19049;52.524;11.468;2023-03-24T03:55:21;12.20;99.90
32640;DHT22;19049;52.524;11.468;2023-03-24T03:57:47;11.90;99.90
32640;DHT22;19049;52.524;11.468;2023-03-24T04:00:16;12.50;99.90
32640;DHT22;19049;52.524;11.468;2023-03-24T04:11:27;12.30;99.90
32640;DHT22;19049;52.524;11.468;2023-03-24T04:14:19;13.00;99.90
32640;DHT22;19049;52.524;11.468;2023-03-24T04:17:18;12.20;99.90
32640;DHT22;19049;52.524;11.468;2023-03-24T04:20:02;12.30;99.90
32640;DHT22;19049;52.524;11.468;2023-03-24T04:25:14;11.70;99.90
32640;DHT22;19049;52.524;11.468;2023-03-24T04:27:46;11.60;99.90
32640;DHT22;19049;52.524;11.468;2023-03-24T04:35:36;12.30;99.90
32640;DHT22;19049;52.524;11.468;2023-03-24T04:38:08;11.30;99.90
32640;DHT22;19049;52.524;11.468;2023-03-24T04:40:36;12.40;99.90
32640;DHT22;19049;52.524;11.468;2023-03-24T04:43:09;12.90;99.90
32640;DHT22;19049;52.524;11.468;2023-03-24T04:48:05;12.00;99.90
32640;DHT22;19049;52.524;11.468;2023-03-24T04:50:38;12.00;99.90
32640;DHT22;19049;52.524;11.468;2023-03-24T04:53:06;12.50;99.90
32640;DHT22;19049;52.524;11.468;2023-03-24T04:55:49;12.70;99.90
32640;DHT22;19049;52.524;11.468;2023-03-24T04:58:17;12.60;99.90
32640;DHT22;19049;52.524;11.468;2023-03-24T05:00:44;13.10;99.90
32640;DHT22;19049;52.524;11.468;2023-03-24T05:03:15;13.00;99.90
32640;DHT22;19049;52.524;11.468;2023-03-24T05:05:48;13.20;99.90
32640;DHT22;19049;52.524;11.468;2023-03-24T05:08:16;12.80;99.90
32640;DHT22;19049;52.524;11.468;2023-03-24T05:10:42;12.90;99.90
32640;DHT22;19049;52.524;11.468;2023-03-24T05:13:08;12.60;99.90
32640;DHT22;19049;52.524;11.468;2023-03-24T05:15:34;12.80;99.90
32640;DHT22;19049;52.524;11.468;2023-03-24T05:18:01;13.10;99.90
32640;DHT22;19049;52.524;11.468;2023-03-24T05:20:27;12.40;99.90
32640;DHT22;19049;52.524;11.468;2023-03-24T05:25:19;12.50;99.90
32640;DHT22;19049;52.524;11.468;2023-03-24T05:27:45;13.00;99.90
32640;DHT22;19049;52.524;11.468;2023-03-24T05:30:11;13.00;99.90
32640;DHT22;19049;52.524;11.468;2023-03-24T05:35:04;13.00;99.90
32640;DHT22;19049;52.524;11.468;2023-03-24T05:39:56;13.50;99.90
32640;DHT22;19049;52.524;11.468;2023-03-24T05:44:51;13.10;99.90
32640;DHT22;19049;52.524;11.468;2023-03-24T05:49:53;13.10;99.90
32640;DHT22;19049;52.524;11.468;2023-03-24T05:57:16;13.20;99.90
32640;DHT22;19049;52.524;11.468;2023-03-24T06:02:11;13.70;99.90
32640;DHT22;19049;52.524;11.468;2023-03-24T06:09:30;13.40;99.90
32640;DHT22;19049;52.524;11.468;2023-03-24T06:12:04;12.40;99.90
32640;DHT22;19049;52.524;11.468;2023-03-24T06:14:30;13.80;99.90
32640;DHT22;19049;52.524;11.468;2023-03-24T06:16:58;13.10;99.90
32640;DHT22;19049;52.524;11.468;2023-03-24T06:19:27;13.80;99.90
32640;DHT22;19049;52.524;11.468;2023-03-24T06:29:17;14.30;99.90
32640;DHT22;19049;52.524;11.468;2023-03-24T06:31:43;13.40;99.90
32640;DHT22;19049;52.524;11.468;2023-03-24T06:36:36;12.80;99.90
32640;DHT22;19049;52.524;11.468;2023-03-24T06:39:03;13.60;99.90
32640;DHT22;19049;52.524;11.468;2023-03-24T06:41:32;13.70;99.90
32640;DHT22;19049;52.524;11.468;2023-03-24T06:46:31;14.10;99.90
32640;DHT22;19049;52.524;11.468;2023-03-24T06:49:05;13.90;99.90
32640;DHT22;19049;52.524;11.468;2023-03-24T06:53:57;13.70;99.90
32640;DHT22;19049;52.524;11.468;2023-03-24T06:58:48;13.90;99.90
32640;DHT22;19049;52.524;11.468;2023-03-24T07:03:49;14.70;99.90
32640;DHT22;19049;52.524;11.468;2023-03-24T07:08:40;14.10;99.90
32640;DHT22;19049;52.524;11.468;2023-03-24T07:13:34;13.40;99.90
32640;DHT22;19049;52.524;11.468;2023-03-24T07:18:33;14.60;99.90
32640;DHT22;19049;52.524;11.468;2023-03-24T07:20:59;14.00;99.90
32640;DHT22;19049;52.524;11.468;2023-03-24T07:23:24;13.90;99.90
32640;DHT22;19049;52.524;11.468;2023-03-24T07:35:38;14.30;99.90
32640;DHT22;19049;52.524;11.468;2023-03-24T07:40:30;15.00;99.90
32640;DHT22;19049;52.524;11.468;2023-03-24T07:42:59;14.60;99.90
32640;DHT22;19049;52.524;11.468;2023-03-24T07:45:25;15.00;99.90
32640;DHT22;19049;52.524;11.468;2023-03-24T07:52:49;15.10;99.90
32640;DHT22;19049;52.524;11.468;2023-03-24T07:57:48;15.90;99.90
32640;DHT22;19049;52.524;11.468;2023-03-24T08:00:15;14.70;99.90
32640;DHT22;19049;52.524;11.468;2023-03-24T08:02:52;15.60;99.90
32640;DHT22;19049;52.524;11.468;2023-03-24T08:05:19;15.00;99.90
32640;DHT22;19049;52.524;11.468;2023-03-24T08:07:52;15.20;99.90
32640;DHT22;19049;52.524;11.468;2023-03-24T08:10:23;15.00;99.90
32640;DHT22;19049;52.524;11.468;2023-03-24T08:12:53;15.00;99.90
32640;DHT22;19049;52.524;11.468;2023-03-24T08:15:19;14.90;99.90
32640;DHT22;19049;52.524;11.468;2023-03-24T08:17:47;15.30;99.90
32640;DHT22;19049;52.524;11.468;2023-03-24T08:20:17;15.00;99.90
32640;DHT22;19049;52.524;11.468;2023-03-24T08:22:54;15.00;99.90
32640;DHT22;19049;52.524;11.468;2023-03-24T08:25:23;15.00;99.90
32640;DHT22;19049;52.524;11.468;2023-03-24T08:27:52;14.90;99.90
32640;DHT22;19049;52.524;11.468;2023-03-24T08:30:29;15.00;99.90
32640;DHT22;19049;52.524;11.468;2023-03-24T08:32:59;14.50;99.90
32640;DHT22;19049;52.524;11.468;2023-03-24T08:35:31;15.00;99.90
32640;DHT22;19049;52.524;11.468;2023-03-24T08:37:57;14.40;99.90
32640;DHT22;19049;52.524;11.468;2023-03-24T08:40:27;14.60;99.90
32640;DHT22;19049;52.524;11.468;2023-03-24T08:42:55;14.90;99.90
32640;DHT22;19049;52.524;11.468;2023-03-24T08:45:23;14.60;99.90
32640;DHT22;19049;52.524;11.468;2023-03-24T08:47:52;14.60;99.90
32640;DHT22;19049;52.524;11.468;2023-03-24T08:50:23;14.70;99.90
32640;DHT22;19049;52.524;11.468;2023-03-24T08:52:50;15.10;99.90
32640;DHT22;19049;52.524;11.468;2023-03-24T08:55:17;14.50;99.90
32640;DHT22;19049;52.524;11.468;2023-03-24T08:57:46;15.60;99.90
32640;DHT22;19049;52.524;11.468;2023-03-24T09:00:12;15.20;99.90
32640;DHT22;19049;52.524;11.468;2023-03-24T09:02:47;15.80;99.90
32640;DHT22;19049;52.524;11.468;2023-03-24T09:05:14;15.60;99.90
32640;DHT22;19049;52.524;11.468;2023-03-24T09:07:41;15.70;99.90
32640;DHT22;19049;52.524;11.468;2023-03-24T09:10:14;15.70;99.90
32640;DHT22;19049;52.524;11.468;2023-03-24T09:12:41;15.90;99.90
32640;DHT22;19049;52.524;11.468;2023-03-24T09:15:08;16.00;99.90
32640;DHT22;19049;52.524;11.468;2023-03-24T09:20:10;16.00;97.40
32640;DHT22;19049;52.524;11.468;2023-03-24T09:22:41;15.90;98.40
32640;DHT22;19049;52.524;11.468;2023-03-24T09:25:08;16.60;99.90
32640;DHT22;19049;52.524;11.468;2023-03-24T09:27:34;16.60;99.90
32640;DHT22;19049;52.524;11.468;2023-03-24T09:42:25;16.40;96.90
32640;DHT22;19049;52.524;11.468;2023-03-24T09:44:58;16.90;97.70
32640;DHT22;19049;52.524;11.468;2023-03-24T09:47:28;16.40;97.50
32640;DHT22;19049;52.524;11.468;2023-03-24T09:49:58;16.40;97.90
32640;DHT22;19049;52.524;11.468;2023-03-24T09:52:37;16.50;98.60
32640;DHT22;19049;52.524;11.468;2023-03-24T09:55:11;16.50;98.10
32640;DHT22;19049;52.524;11.468;2023-03-24T09:57:44;16.40;99.90
32640;DHT22;19049;52.524;11.468;2023-03-24T10:00:18;16.40;99.90
32640;DHT22;19049;52.524;11.468;2023-03-24T10:05:23;16.80;98.40
32640;DHT22;19049;52.524;11.468;2023-03-24T10:08:18;17.00;97.00
32640;DHT22;19049;52.524;11.468;2023-03-24T10:11:03;17.50;99.90
32640;DHT22;19049;52.524;11.468;2023-03-24T10:22:08;17.10;99.90
32640;DHT22;19049;52.524;11.468;2023-03-24T10:24:48;18.40;97.70
32640;DHT22;19049;52.524;11.468;2023-03-24T10:30:16;18.80;96.60
32640;DHT22;19049;52.524;11.468;2023-03-24T10:32:43;18.30;99.90
32640;DHT22;19049;52.524;11.468;2023-03-24T10:35:38;19.20;99.90
32640;DHT22;19049;52.524;11.468;2023-03-24T10:38:17;19.50;98.20
32640;DHT22;19049;52.524;11.468;2023-03-24T10:40:44;18.80;93.10
32640;DHT22;19049;52.524;11.468;2023-03-24T10:43:16;18.70;91.00
32640;DHT22;19049;52.524;11.468;2023-03-24T10:45:46;18.50;91.00
32640;DHT22;19049;52.524;11.468;2023-03-24T10:48:15;18.40;91.10
32640;DHT22;19049;52.524;11.468;2023-03-24T10:50:57;17.70;97.50
32640;DHT22;19049;52.524;11.468;2023-03-24T10:53:24;18.50;93.60
32640;DHT22;19049;52.524;11.468;2023-03-24T10:58:31;18.20;97.00
32640;DHT22;19049;52.524;11.468;2023-03-24T11:01:03;17.70;90.30
32640;DHT22;19049;52.524;11.468;2023-03-24T11:03:35;17.70;91.20
32640;DHT22;19049;52.524;11.468;2023-03-24T11:06:03;17.70;93.10
32640;DHT22;19049;52.524;11.468;2023-03-24T11:08:37;18.00;91.30
32640;DHT22;19049;52.524;11.468;2023-03-24T11:11:32;17.70;91.00
32640;DHT22;19049;52.524;11.468;2023-03-24T11:14:01;17.80;97.60
32640;DHT22;19049;52.524;11.468;2023-03-24T11:16:37;17.60;90.80
32640;DHT22;19049;52.524;11.468;2023-03-24T11:21:33;17.30;97.80
32640;DHT22;19049;52.524;11.468;2023-03-24T11:24:10;17.70;92.50
32640;DHT22;19049;52.524;11.468;2023-03-24T11:26:38;17.90;93.90
32640;DHT22;19049;52.524;11.468;2023-03-24T11:29:07;18.20;91.50
32640;DHT22;19049;52.524;11.468;2023-03-24T11:31:37;18.30;91.40
32640;DHT22;19049;52.524;11.468;2023-03-24T11:34:17;18.80;97.80
32640;DHT22;19049;52.524;11.468;2023-03-24T11:36:58;19.10;95.70
32640;DHT22;19049;52.524;11.468;2023-03-24T11:39:29;18.20;93.60
32640;DHT22;19049;52.524;11.468;2023-03-24T11:47:16;18.60;79.00
32640;DHT22;19049;52.524;11.468;2023-03-24T11:55:05;18.80;86.80
32640;DHT22;19049;52.524;11.468;2023-03-24T12:00:20;18.60;79.50
32640;DHT22;19049;52.524;11.468;2023-03-24T12:03:10;18.30;91.60
32640;DHT22;19049;52.524;11.468;2023-03-24T12:06:18;19.90;76.40
32640;DHT22;19049;52.524;11.468;2023-03-24T12:14:48;19.60;80.10
32640;DHT22;19049;52.524;11.468;2023-03-24T12:17:16;19.80;82.20
32640;DHT22;19049;52.524;11.468;2023-03-24T12:48:53;19.80;90.40
32640;DHT22;19049;52.524;11.468;2023-03-24T12:57:10;19.70;68.10
32640;DHT22;19049;52.524;11.468;2023-03-24T13:04:45;18.70;78.00
32640;DHT22;19049;52.524;11.468;2023-03-24T13:07:16;19.00;64.20
32640;DHT22;19049;52.524;11.468;2023-03-24T13:12:45;18.60;65.60
32640;DHT22;19049;52.524;11.468;2023-03-24T13:15:19;18.40;65.90
32640;DHT22;19049;52.524;11.468;2023-03-24T13:20:20;17.00;85.30
32640;DHT22;19049;52.524;11.468;2023-03-24T13:22:47;17.90;87.60
32640;DHT22;19049;52.524;11.468;2023-03-24T13:25:45;17.90;73.30
32640;DHT22;19049;52.524;11.468;2023-03-24T13:28:12;17.60;78.70
32640;DHT22;19049;52.524;11.468;2023-03-24T13:30:40;17.70;76.60
32640;DHT22;19049;52.524;11.468;2023-03-24T13:33:15;17.60;76.50
32640;DHT22;19049;52.524;11.468;2023-03-24T13:41:03;18.40;92.80
32640;DHT22;19049;52.524;11.468;2023-03-24T13:43:30;18.00;91.30
32640;DHT22;19049;52.524;11.468;2023-03-24T13:46:06;18.40;72.00
32640;DHT22;19049;52.524;11.468;2023-03-24T13:48:43;18.90;75.50
32640;DHT22;19049;52.524;11.468;2023-03-24T13:51:33;19.20;73.30
32640;DHT22;19049;52.524;11.468;2023-03-24T13:56:34;19.80;76.40
32640;DHT22;19049;52.524;11.468;2023-03-24T14:13:01;20.50;82.50
32640;DHT22;19049;52.524;11.468;2023-03-24T14:15:43;19.90;80.20
32640;DHT22;19049;52.524;11.468;2023-03-24T14:23:47;20.70;64.40
32640;DHT22;19049;52.524;11.468;2023-03-24T14:28:54;20.30;63.70
32640;DHT22;19049;52.524;11.468;2023-03-24T14:31:23;20.20;59.90
32640;DHT22;19049;52.524;11.468;2023-03-24T14:36:34;20.20;62.90
32640;DHT22;19049;52.524;11.468;2023-03-24T14:41:47;20.00;61.10
32640;DHT22;19049;52.524;11.468;2023-03-24T14:47:18;19.50;62.70
32640;DHT22;19049;52.524;11.468;2023-03-24T14:49:50;20.00;85.30
32640;DHT22;19049;52.524;11.468;2023-03-24T14:55:13;19.30;68.30
32640;DHT22;19049;52.524;11.468;2023-03-24T14:57:45;19.20;65.50
32640;DHT22;19049;52.524;11.468;2023-03-24T15:07:45;18.90;64.80
32640;DHT22;19049;52.524;11.468;2023-03-24T15:10:22;19.50;77.90
32640;DHT22;19049;52.524;11.468;2023-03-24T15:12:48;18.80;65.80
32640;DHT22;19049;52.524;11.468;2023-03-24T15:15:20;18.60;68.50
32640;DHT22;19049;52.524;11.468;2023-03-24T15:17:48;18.40;67.30
32640;DHT22;19049;52.524;11.468;2023-03-24T15:25:12;17.40;68.70
32640;DHT22;19049;52.524;11.468;2023-03-24T15:30:11;17.50;71.60
32640;DHT22;19049;52.524;11.468;2023-03-24T15:35:14;17.60;74.30
32640;DHT22;19049;52.524;11.468;2023-03-24T15:37:43;17.60;77.20
32640;DHT22;19049;52.524;11.468;2023-03-24T15:42:50;17.80;77.40
32640;DHT22;19049;52.524;11.468;2023-03-24T15:45:34;18.00;81.10
32640;DHT22;19049;52.524;11.468;2023-03-24T15:48:14;17.40;76.20
32640;DHT22;19049;52.524;11.468;2023-03-24T15:51:00;17.30;77.60
32640;DHT22;19049;52.524;11.468;2023-03-24T15:53:40;17.20;90.90
32640;DHT22;19049;52.524;11.468;2023-03-24T15:56:15;17.20;75.40
32640;DHT22;19049;52.524;11.468;2023-03-24T16:01:15;17.50;90.50
32640;DHT22;19049;52.524;11.468;2023-03-24T16:03:43;16.90;76.20
32640;DHT22;19049;52.524;11.468;2023-03-24T16:06:14;16.70;77.20
32640;DHT22;19049;52.524;11.468;2023-03-24T16:08:42;16.60;79.50
32640;DHT22;19049;52.524;11.468;2023-03-24T16:11:12;16.40;81.60
32640;DHT22;19049;52.524;11.468;2023-03-24T16:13:43;16.20;83.30
32640;DHT22;19049;52.524;11.468;2023-03-24T16:18:44;15.80;85.00
32640;DHT22;19049;52.524;11.468;2023-03-24T16:21:19;15.10;94.70
32640;DHT22;19049;52.524;11.468;2023-03-24T16:23:45;15.20;95.60
32640;DHT22;19049;52.524;11.468;2023-03-24T16:26:32;14.60;95.90
32640;DHT22;19049;52.524;11.468;2023-03-24T16:29:21;14.40;91.10
32640;DHT22;19049;52.524;11.468;2023-03-24T16:31:49;15.00;90.70
32640;DHT22;19049;52.524;11.468;2023-03-24T16:34:16;15.60;98.10
32640;DHT22;19049;52.524;11.468;2023-03-24T16:36:46;15.60;96.80
32640;DHT22;19049;52.524;11.468;2023-03-24T16:39:15;13.90;99.40
32640;DHT22;19049;52.524;11.468;2023-03-24T16:41:41;14.80;92.90
32640;DHT22;19049;52.524;11.468;2023-03-24T16:46:41;14.80;93.10
32640;DHT22;19049;52.524;11.468;2023-03-24T16:49:12;14.80;94.80
32640;DHT22;19049;52.524;11.468;2023-03-24T16:51:39;14.70;94.00
32640;DHT22;19049;52.524;11.468;2023-03-24T16:54:05;14.10;99.90
32640;DHT22;19049;52.524;11.468;2023-03-24T16:56:34;14.60;94.50
32640;DHT22;19049;52.524;11.468;2023-03-24T17:01:31;14.30;92.20
32640;DHT22;19049;52.524;11.468;2023-03-24T17:04:15;14.10;97.40
32640;DHT22;19049;52.524;11.468;2023-03-24T17:06:43;14.30;92.30
32640;DHT22;19049;52.524;11.468;2023-03-24T17:09:18;14.30;94.60
32640;DHT22;19049;52.524;11.468;2023-03-24T17:11:54;13.70;99.90
32640;DHT22;19049;52.524;11.468;2023-03-24T17:16:56;13.10;94.20
32640;DHT22;19049;52.524;11.468;2023-03-24T17:19:24;13.20;96.30
32640;DHT22;19049;52.524;11.468;2023-03-24T17:22:02;11.80;99.90
32640;DHT22;19049;52.524;11.468;2023-03-24T17:24:31;12.40;95.20
32640;DHT22;19049;52.524;11.468;2023-03-24T17:31:56;11.40;99.90
32640;DHT22;19049;52.524;11.468;2023-03-24T17:39:17;11.40;99.90
32640;DHT22;19049;52.524;11.468;2023-03-24T17:46:35;11.20;99.90
32640;DHT22;19049;52.524;11.468;2023-03-24T17:49:01;10.10;99.90
32640;DHT22;19049;52.524;11.468;2023-03-24T17:53:55;10.70;97.90
32640;DHT22;19049;52.524;11.468;2023-03-24T17:58:47;10.60;98.20
32640;DHT22;19049;52.524;11.468;2023-03-24T18:01:13;10.50;99.90
32640;DHT22;19049;52.524;11.468;2023-03-24T18:03:43;10.40;99.00
32640;DHT22;19049;52.524;11.468;2023-03-24T18:06:11;10.30;99.90
32640;DHT22;19049;52.524;11.468;2023-03-24T18:08:37;10.30;99.60
32640;DHT22;19049;52.524;11.468;2023-03-24T18:11:08;10.40;99.90
32640;DHT22;19049;52.524;11.468;2023-03-24T18:13:34;10.50;99.90
32640;DHT22;19049;52.524;11.468;2023-03-24T18:16:00;10.50;99.90
32640;DHT22;19049;52.524;11.468;2023-03-24T18:18:26;10.40;99.90
32640;DHT22;19049;52.524;11.468;2023-03-24T18:26:00;10.30;99.90
32640;DHT22;19049;52.524;11.468;2023-03-24T18:30:55;10.70;99.90
32640;DHT22;19049;52.524;11.468;2023-03-24T18:35:49;11.10;99.90
32640;DHT22;19049;52.524;11.468;2023-03-24T18:45:38;9.90;99.90
32640;DHT22;19049;52.524;11.468;2023-03-24T18:48:04;10.70;99.90
32640;DHT22;19049;52.524;11.468;2023-03-24T18:50:29;10.70;99.90
32640;DHT22;19049;52.524;11.468;2023-03-24T18:52:55;10.90;99.90
32640;DHT22;19049;52.524;11.468;2023-03-24T18:55:23;10.50;99.90
32640;DHT22;19049;52.524;11.468;2023-03-24T19:00:17;10.20;99.90
32640;DHT22;19049;52.524;11.468;2023-03-24T19:02:44;10.00;99.90
32640;DHT22;19049;52.524;11.468;2023-03-24T19:05:10;9.60;99.90
32640;DHT22;19049;52.524;11.468;2023-03-24T19:12:30;9.80;99.90
32640;DHT22;19049;52.524;11.468;2023-03-24T19:14:56;9.70;99.90
32640;DHT22;19049;52.524;11.468;2023-03-24T19:17:21;9.70;99.90
32640;DHT22;19049;52.524;11.468;2023-03-24T19:22:14;9.90;99.90
32640;DHT22;19049;52.524;11.468;2023-03-24T19:24:45;9.20;99.90
32640;DHT22;19049;52.524;11.468;2023-03-24T19:36:55;9.60;99.90
32640;DHT22;19049;52.524;11.468;2023-03-24T19:41:53;9.10;99.90
32640;DHT22;19049;52.524;11.468;2023-03-24T19:44:18;9.00;99.90
32640;DHT22;19049;52.524;11.468;2023-03-24T19:46:47;9.50;99.90
32640;DHT22;19049;52.524;11.468;2023-03-24T19:49:12;8.70;99.90
32640;DHT22;19049;52.524;11.468;2023-03-24T20:01:26;8.90;99.90
32640;DHT22;19049;52.524;11.468;2023-03-24T20:03:53;9.00;99.90
32640;DHT22;19049;52.524;11.468;2023-03-24T20:06:19;8.90;99.90
32640;DHT22;19049;52.524;11.468;2023-03-24T20:08:45;9.00;99.90
32640;DHT22;19049;52.524;11.468;2023-03-24T20:13:37;9.00;99.90
32640;DHT22;19049;52.524;11.468;2023-03-24T20:16:03;9.00;99.90
32640;DHT22;19049;52.524;11.468;2023-03-24T20:18:29;8.90;99.90
32640;DHT22;19049;52.524;11.468;2023-03-24T20:28:13;8.60;99.90
32640;DHT22;19049;52.524;11.468;2023-03-24T20:35:37;8.80;99.90
32640;DHT22;19049;52.524;11.468;2023-03-24T20:45:22;8.30;99.90
32640;DHT22;19049;52.524;11.468;2023-03-24T20:52:40;8.20;99.90
32640;DHT22;19049;52.524;11.468;2023-03-24T20:55:06;9.80;99.90
32640;DHT22;19049;52.524;11.468;2023-03-24T20:57:33;8.40;99.90
32640;DHT22;19049;52.524;11.468;2023-03-24T21:02:26;8.60;99.90
32640;DHT22;19049;52.524;11.468;2023-03-24T21:04:52;8.60;99.90
32640;DHT22;19049;52.524;11.468;2023-03-24T21:09:44;8.40;99.90
32640;DHT22;19049;52.524;11.468;2023-03-24T21:14:36;8.20;99.90
32640;DHT22;19049;52.524;11.468;2023-03-24T21:19:28;8.30;99.90
32640;DHT22;19049;52.524;11.468;2023-03-24T21:21:53;7.80;99.90
32640;DHT22;19049;52.524;11.468;2023-03-24T21:24:20;8.20;99.90
32640;DHT22;19049;52.524;11.468;2023-03-24T21:29:15;8.10;99.90
32640;DHT22;19049;52.524;11.468;2023-03-24T21:31:43;8.10;99.90
32640;DHT22;19049;52.524;11.468;2023-03-24T21:39:03;7.80;99.90
32640;DHT22;19049;52.524;11.468;2023-03-24T21:41:33;8.10;99.90
32640;DHT22;19049;52.524;11.468;2023-03-24T21:43:59;8.10;99.90
32640;DHT22;19049;52.524;11.468;2023-03-24T21:46:25;8.10;99.90
32640;DHT22;19049;52.524;11.468;2023-03-24T21:48:53;8.10;99.90
32640;DHT22;19049;52.524;11.468;2023-03-24T21:51:24;8.10;99.90
32640;DHT22;19049;52.524;11.468;2023-03-24T21:53:52;8.10;99.90
32640;DHT22;19049;52.524;11.468;2023-03-24T21:56:22;8.00;99.90
32640;DHT22;19049;52.524;11.468;2023-03-24T21:58:52;8.00;99.90
32640;DHT22;19049;52.524;11.468;2023-03-24T22:01:20;8.00;99.90
32640;DHT22;19049;52.524;11.468;2023-03-24T22:03:46;8.00;99.90
32640;DHT22;19049;52.524;11.468;2023-03-24T22:06:12;8.10;99.90
32640;DHT22;19049;52.524;11.468;2023-03-24T22:08:38;8.10;99.90
32640;DHT22;19049;52.524;11.468;2023-03-24T22:11:08;8.00;99.90
32640;DHT22;19049;52.524;11.468;2023-03-24T22:13:34;7.90;99.90
32640;DHT22;19049;52.524;11.468;2023-03-24T22:16:03;8.00;99.90
32640;DHT22;19049;52.524;11.468;2023-03-24T22:18:31;8.40;99.90
32640;DHT22;19049;52.524;11.468;2023-03-24T22:20:59;7.50;99.90
32640;DHT22;19049;52.524;11.468;2023-03-24T22:23:29;7.80;99.90
32640;DHT22;19049;52.524;11.468;2023-03-24T22:26:05;7.80;99.90
32640;DHT22;19049;52.524;11.468;2023-03-24T22:28:33;7.40;99.90
32640;DHT22;19049;52.524;11.468;2023-03-24T22:31:03;7.60;99.90
32640;DHT22;19049;52.524;11.468;2023-03-24T22:35:56;8.00;99.90
32640;DHT22;19049;52.524;11.468;2023-03-24T22:40:48;6.90;99.90
32640;DHT22;19049;52.524;11.468;2023-03-24T22:43:14;7.20;99.90
32640;DHT22;19049;52.524;11.468;2023-03-24T22:45:41;7.50;99.90
32640;DHT22;19049;52.524;11.468;2023-03-24T23:07:39;7.60;99.90
32640;DHT22;19049;52.524;11.468;2023-03-24T23:15:00;7.10;99.90
32640;DHT22;19049;52.524;11.468;2023-03-24T23:17:26;7.90;99.90